Michurinsk, Russia
Current Conditions -  °F | °C
As of 4:00 AM on Monday 24 Nov 2014 (Local Time) from UUOO Reporting Station
Broken Clouds Broken Clouds  
Wind Chill: 19°   Ceiling: 10000
Heat Index: 27°   Visibility: 5mi
Dew Point: 23°   Wind: 7mph
Humidity: 86%   Direction: 80°E
Pressure: 30.53"   Gusts: NA
Location:  52.9°N, 40.5°E
Report Text: UUOO 240100Z 08003MPS 8000 BKN100 M03/M05 Q1034 NOSIG RMK 12090070
Loading
Personal Weather Stations






























Interactive Weather Map New forecast layout! Learn more

10-Day Weather Forecast

Advertisements
Track Severe Weather on mobile